sensor_id;sensor_type;location;lat;lon;timestamp;pressure;altitude;pressure_sealevel;temperature;humidity
4469;BME280;2247;42.666;23.292;2022-12-15T00:01:24;93524.34;;;6.81;68.63
4469;BME280;2247;42.666;23.292;2022-12-15T00:04:08;93511.19;;;6.96;67.95
4469;BME280;2247;42.666;23.292;2022-12-15T00:06:53;93495.22;;;6.98;68.42
4469;BME280;2247;42.666;23.292;2022-12-15T00:09:37;93516.16;;;6.98;68.90
4469;BME280;2247;42.666;23.292;2022-12-15T00:12:23;93526.13;;;7.40;68.25
4469;BME280;2247;42.666;23.292;2022-12-15T00:15:08;93539.09;;;7.60;66.50
4469;BME280;2247;42.666;23.292;2022-12-15T00:17:52;93532.63;;;7.47;67.09
4469;BME280;2247;42.666;23.292;2022-12-15T00:20:36;93559.25;;;7.26;68.04
4469;BME280;2247;42.666;23.292;2022-12-15T00:23:20;93561.34;;;7.24;68.29
4469;BME280;2247;42.666;23.292;2022-12-15T00:26:04;93586.56;;;7.09;68.65
4469;BME280;2247;42.666;23.292;2022-12-15T00:28:51;93609.03;;;7.16;68.73
4469;BME280;2247;42.666;23.292;2022-12-15T00:31:35;93608.19;;;7.30;68.57
4469;BME280;2247;42.666;23.292;2022-12-15T00:34:19;93588.56;;;7.28;68.44
4469;BME280;2247;42.666;23.292;2022-12-15T00:37:05;93595.44;;;7.19;68.48
4469;BME280;2247;42.666;23.292;2022-12-15T00:39:49;93600.63;;;7.24;68.19
4469;BME280;2247;42.666;23.292;2022-12-15T00:42:23;93566.09;;;7.61;67.52
4469;BME280;2247;42.666;23.292;2022-12-15T00:44:52;93567.50;;;7.82;66.32
4469;BME280;2247;42.666;23.292;2022-12-15T00:47:19;93551.72;;;7.92;65.52
4469;BME280;2247;42.666;23.292;2022-12-15T00:49:45;93555.47;;;7.81;65.81
4469;BME280;2247;42.666;23.292;2022-12-15T00:52:29;93546.84;;;7.75;65.76
4469;BME280;2247;42.666;23.292;2022-12-15T00:55:14;93533.78;;;7.31;66.50
4469;BME280;2247;42.666;23.292;2022-12-15T00:57:58;93543.91;;;6.94;68.33
4469;BME280;2247;42.666;23.292;2022-12-15T01:00:44;93531.97;;;6.78;69.14
4469;BME280;2247;42.666;23.292;2022-12-15T01:03:28;93538.28;;;6.66;69.79
4469;BME280;2247;42.666;23.292;2022-12-15T01:06:14;93522.16;;;6.34;70.97
4469;BME280;2247;42.666;23.292;2022-12-15T01:08:59;93518.53;;;6.10;71.91
4469;BME280;2247;42.666;23.292;2022-12-15T01:11:44;93513.31;;;6.05;72.42
4469;BME280;2247;42.666;23.292;2022-12-15T01:14:29;93501.81;;;5.85;72.91
4469;BME280;2247;42.666;23.292;2022-12-15T01:17:16;93494.75;;;5.76;73.84
4469;BME280;2247;42.666;23.292;2022-12-15T01:20:00;93499.97;;;5.81;73.75
4469;BME280;2247;42.666;23.292;2022-12-15T01:22:42;93513.31;;;5.84;73.29
4469;BME280;2247;42.666;23.292;2022-12-15T01:25:09;93509.38;;;5.82;73.25
4469;BME280;2247;42.666;23.292;2022-12-15T01:27:36;93502.06;;;6.04;72.72
4469;BME280;2247;42.666;23.292;2022-12-15T01:30:06;93510.69;;;6.05;72.75
4469;BME280;2247;42.666;23.292;2022-12-15T01:32:34;93520.13;;;5.96;72.76
4469;BME280;2247;42.666;23.292;2022-12-15T01:35:02;93530.84;;;5.94;72.81
4469;BME280;2247;42.666;23.292;2022-12-15T01:37:30;93541.03;;;6.01;73.14
4469;BME280;2247;42.666;23.292;2022-12-15T01:39:57;93529.53;;;6.07;73.28
4469;BME280;2247;42.666;23.292;2022-12-15T01:42:42;93513.06;;;6.01;73.37
4469;BME280;2247;42.666;23.292;2022-12-15T01:45:48;93504.16;;;5.97;73.43
4469;BME280;2247;42.666;23.292;2022-12-15T01:48:22;93507.06;;;6.01;73.47
4469;BME280;2247;42.666;23.292;2022-12-15T01:50:57;93495.00;;;6.15;72.44
4469;BME280;2247;42.666;23.292;2022-12-15T01:53:27;93494.16;;;6.29;72.36
4469;BME280;2247;42.666;23.292;2022-12-15T01:55:56;93490.75;;;6.34;72.34
4469;BME280;2247;42.666;23.292;2022-12-15T01:58:23;93463.06;;;6.28;72.29
4469;BME280;2247;42.666;23.292;2022-12-15T02:00:51;93472.00;;;6.07;72.38
4469;BME280;2247;42.666;23.292;2022-12-15T02:03:19;93459.19;;;5.75;73.74
4469;BME280;2247;42.666;23.292;2022-12-15T02:05:47;93451.66;;;5.58;74.62
4469;BME280;2247;42.666;23.292;2022-12-15T02:08:14;93450.09;;;5.37;75.44
4469;BME280;2247;42.666;23.292;2022-12-15T02:11:05;93452.19;;;5.35;75.92
4469;BME280;2247;42.666;23.292;2022-12-15T02:13:39;93461.56;;;5.41;75.79
4469;BME280;2247;42.666;23.292;2022-12-15T02:16:15;93437.56;;;5.59;75.36
4469;BME280;2247;42.666;23.292;2022-12-15T02:18:53;93442.25;;;5.62;75.10
4469;BME280;2247;42.666;23.292;2022-12-15T02:21:28;93439.31;;;6.04;74.22
4469;BME280;2247;42.666;23.292;2022-12-15T02:24:18;93428.59;;;6.06;73.25
4469;BME280;2247;42.666;23.292;2022-12-15T02:27:12;93405.75;;;6.31;72.86
4469;BME280;2247;42.666;23.292;2022-12-15T02:32:49;93419.97;;;6.69;71.31
4469;BME280;2247;42.666;23.292;2022-12-15T02:35:25;93434.75;;;6.89;71.12
4469;BME280;2247;42.666;23.292;2022-12-15T02:37:54;93426.13;;;6.89;70.73
4469;BME280;2247;42.666;23.292;2022-12-15T02:40:21;93434.97;;;6.98;71.02
4469;BME280;2247;42.666;23.292;2022-12-15T02:42:51;93419.81;;;6.95;70.69
4469;BME280;2247;42.666;23.292;2022-12-15T02:45:21;93431.88;;;6.91;69.79
4469;BME280;2247;42.666;23.292;2022-12-15T02:47:59;93447.81;;;6.94;70.24
4469;BME280;2247;42.666;23.292;2022-12-15T02:50:39;93472.38;;;7.03;70.61
4469;BME280;2247;42.666;23.292;2022-12-15T02:53:18;93479.97;;;7.05;70.95
4469;BME280;2247;42.666;23.292;2022-12-15T02:55:57;93471.78;;;7.17;70.55
4469;BME280;2247;42.666;23.292;2022-12-15T02:58:36;93479.56;;;7.27;70.28
4469;BME280;2247;42.666;23.292;2022-12-15T03:01:10;93446.28;;;7.27;69.49
4469;BME280;2247;42.666;23.292;2022-12-15T03:03:41;93470.25;;;7.78;68.54
4469;BME280;2247;42.666;23.292;2022-12-15T03:06:09;93476.50;;;7.82;67.56
4469;BME280;2247;42.666;23.292;2022-12-15T03:08:36;93466.41;;;7.71;67.91
4469;BME280;2247;42.666;23.292;2022-12-15T03:11:03;93451.59;;;7.85;67.88
4469;BME280;2247;42.666;23.292;2022-12-15T03:13:31;93456.88;;;8.09;66.55
4469;BME280;2247;42.666;23.292;2022-12-15T03:15:59;93474.34;;;7.89;67.51
4469;BME280;2247;42.666;23.292;2022-12-15T03:18:26;93462.94;;;8.04;67.14
4469;BME280;2247;42.666;23.292;2022-12-15T03:20:54;93461.38;;;8.03;66.42
4469;BME280;2247;42.666;23.292;2022-12-15T03:23:21;93467.97;;;8.01;66.89
4469;BME280;2247;42.666;23.292;2022-12-15T03:25:49;93474.72;;;8.07;65.85
4469;BME280;2247;42.666;23.292;2022-12-15T03:28:16;93471.88;;;8.03;66.28
4469;BME280;2247;42.666;23.292;2022-12-15T03:30:43;93468.81;;;8.20;66.30
4469;BME280;2247;42.666;23.292;2022-12-15T03:33:10;93458.66;;;8.13;66.11
4469;BME280;2247;42.666;23.292;2022-12-15T03:35:38;93462.56;;;8.16;66.54
4469;BME280;2247;42.666;23.292;2022-12-15T03:38:06;93480.03;;;8.25;66.23
4469;BME280;2247;42.666;23.292;2022-12-15T03:40:33;93472.94;;;8.26;65.99
4469;BME280;2247;42.666;23.292;2022-12-15T03:43:00;93449.03;;;8.04;66.68
4469;BME280;2247;42.666;23.292;2022-12-15T03:45:28;93466.47;;;7.95;67.22
4469;BME280;2247;42.666;23.292;2022-12-15T03:47:55;93480.69;;;7.83;67.70
4469;BME280;2247;42.666;23.292;2022-12-15T03:50:25;93480.56;;;7.70;68.18
4469;BME280;2247;42.666;23.292;2022-12-15T03:52:54;93490.63;;;7.58;69.04
4469;BME280;2247;42.666;23.292;2022-12-15T03:55:23;93477.59;;;7.47;68.80
4469;BME280;2247;42.666;23.292;2022-12-15T03:57:51;93494.38;;;7.46;68.93
4469;BME280;2247;42.666;23.292;2022-12-15T04:00:19;93505.94;;;7.40;69.26
4469;BME280;2247;42.666;23.292;2022-12-15T04:02:47;93501.78;;;7.34;69.29
4469;BME280;2247;42.666;23.292;2022-12-15T04:05:16;93516.50;;;7.30;69.76
4469;BME280;2247;42.666;23.292;2022-12-15T04:07:44;93502.88;;;7.28;69.74
4469;BME280;2247;42.666;23.292;2022-12-15T04:10:12;93511.78;;;7.32;69.80
4469;BME280;2247;42.666;23.292;2022-12-15T04:12:40;93506.16;;;7.49;69.46
4469;BME280;2247;42.666;23.292;2022-12-15T04:15:08;93525.72;;;7.62;69.07
4469;BME280;2247;42.666;23.292;2022-12-15T04:17:37;93513.59;;;7.71;68.39
4469;BME280;2247;42.666;23.292;2022-12-15T04:20:05;93512.59;;;7.67;68.67
4469;BME280;2247;42.666;23.292;2022-12-15T04:22:36;93518.03;;;8.04;67.78
4469;BME280;2247;42.666;23.292;2022-12-15T04:25:05;93520.06;;;8.12;66.92
4469;BME280;2247;42.666;23.292;2022-12-15T04:27:51;93513.94;;;8.22;66.28
4469;BME280;2247;42.666;23.292;2022-12-15T04:30:39;93511.97;;;8.38;65.70
4469;BME280;2247;42.666;23.292;2022-12-15T04:33:25;93509.31;;;8.43;65.59
4469;BME280;2247;42.666;23.292;2022-12-15T04:36:11;93491.66;;;8.19;65.73
4469;BME280;2247;42.666;23.292;2022-12-15T04:38:56;93490.28;;;7.98;66.65
4469;BME280;2247;42.666;23.292;2022-12-15T04:41:41;93490.13;;;7.84;66.79
4469;BME280;2247;42.666;23.292;2022-12-15T04:44:27;93470.97;;;7.60;67.86
4469;BME280;2247;42.666;23.292;2022-12-15T04:47:12;93480.56;;;7.36;68.66
4469;BME280;2247;42.666;23.292;2022-12-15T04:49:56;93479.38;;;7.18;69.09
4469;BME280;2247;42.666;23.292;2022-12-15T04:52:41;93489.31;;;7.55;68.55
4469;BME280;2247;42.666;23.292;2022-12-15T04:55:25;93488.56;;;7.83;67.97
4469;BME280;2247;42.666;23.292;2022-12-15T04:58:10;93520.97;;;7.98;67.46
4469;BME280;2247;42.666;23.292;2022-12-15T05:00:57;93512.41;;;7.87;67.02
4469;BME280;2247;42.666;23.292;2022-12-15T05:03:42;93546.63;;;8.06;67.04
4469;BME280;2247;42.666;23.292;2022-12-15T05:06:26;93544.22;;;8.09;67.06
4469;BME280;2247;42.666;23.292;2022-12-15T05:09:11;93549.03;;;7.97;67.55
4469;BME280;2247;42.666;23.292;2022-12-15T05:11:55;93561.56;;;8.05;67.67
4469;BME280;2247;42.666;23.292;2022-12-15T05:14:39;93569.72;;;8.04;67.78
4469;BME280;2247;42.666;23.292;2022-12-15T05:17:25;93572.09;;;8.00;67.83
4469;BME280;2247;42.666;23.292;2022-12-15T05:20:09;93578.94;;;7.96;67.76
4469;BME280;2247;42.666;23.292;2022-12-15T05:22:54;93600.44;;;7.98;67.80
4469;BME280;2247;42.666;23.292;2022-12-15T05:25:38;93603.38;;;7.91;68.08
4469;BME280;2247;42.666;23.292;2022-12-15T05:28:22;93606.69;;;8.07;67.49
4469;BME280;2247;42.666;23.292;2022-12-15T05:31:07;93607.16;;;8.14;67.34
4469;BME280;2247;42.666;23.292;2022-12-15T05:33:55;93614.00;;;8.10;67.48
4469;BME280;2247;42.666;23.292;2022-12-15T05:36:23;93623.53;;;8.01;67.36
4469;BME280;2247;42.666;23.292;2022-12-15T05:38:51;93637.97;;;7.99;67.60
4469;BME280;2247;42.666;23.292;2022-12-15T05:41:19;93635.94;;;7.85;68.32
4469;BME280;2247;42.666;23.292;2022-12-15T05:43:47;93649.09;;;7.75;68.44
4469;BME280;2247;42.666;23.292;2022-12-15T05:46:14;93655.00;;;7.96;67.77
4469;BME280;2247;42.666;23.292;2022-12-15T05:48:40;93663.34;;;8.03;67.36
4469;BME280;2247;42.666;23.292;2022-12-15T05:51:09;93658.38;;;8.07;67.64
4469;BME280;2247;42.666;23.292;2022-12-15T05:53:39;93679.94;;;8.38;66.86
4469;BME280;2247;42.666;23.292;2022-12-15T05:56:08;93684.69;;;8.36;65.99
4469;BME280;2247;42.666;23.292;2022-12-15T05:58:36;93692.06;;;8.28;66.50
4469;BME280;2247;42.666;23.292;2022-12-15T06:01:04;93698.69;;;8.60;66.08
4469;BME280;2247;42.666;23.292;2022-12-15T06:03:31;93706.66;;;8.45;65.42
4469;BME280;2247;42.666;23.292;2022-12-15T06:05:58;93710.31;;;8.49;65.28
4469;BME280;2247;42.666;23.292;2022-12-15T06:08:28;93707.53;;;8.69;65.17
4469;BME280;2247;42.666;23.292;2022-12-15T06:10:55;93708.69;;;8.87;64.45
4469;BME280;2247;42.666;23.292;2022-12-15T06:13:24;93712.75;;;9.03;63.79
4469;BME280;2247;42.666;23.292;2022-12-15T06:15:55;93713.59;;;8.98;63.64
4469;BME280;2247;42.666;23.292;2022-12-15T06:18:23;93724.69;;;8.90;63.61
4469;BME280;2247;42.666;23.292;2022-12-15T06:20:56;93721.09;;;8.81;63.83
4469;BME280;2247;42.666;23.292;2022-12-15T06:23:24;93727.13;;;8.82;64.08
4469;BME280;2247;42.666;23.292;2022-12-15T06:25:54;93734.56;;;9.03;63.97
4469;BME280;2247;42.666;23.292;2022-12-15T06:28:22;93732.66;;;9.09;63.09
4469;BME280;2247;42.666;23.292;2022-12-15T06:30:53;93725.44;;;9.20;63.10
4469;BME280;2247;42.666;23.292;2022-12-15T06:33:22;93727.22;;;9.29;63.08
4469;BME280;2247;42.666;23.292;2022-12-15T06:35:49;93739.47;;;9.39;62.90
4469;BME280;2247;42.666;23.292;2022-12-15T06:38:16;93747.50;;;9.47;62.30
4469;BME280;2247;42.666;23.292;2022-12-15T06:40:44;93758.78;;;9.53;62.07
4469;BME280;2247;42.666;23.292;2022-12-15T06:43:13;93758.28;;;9.51;62.21
4469;BME280;2247;42.666;23.292;2022-12-15T06:45:47;93744.84;;;9.53;61.72
4469;BME280;2247;42.666;23.292;2022-12-15T06:48:15;93759.69;;;9.67;62.08
4469;BME280;2247;42.666;23.292;2022-12-15T06:50:42;93749.53;;;9.79;60.96
4469;BME280;2247;42.666;23.292;2022-12-15T06:53:10;93757.88;;;9.86;60.47
4469;BME280;2247;42.666;23.292;2022-12-15T06:55:37;93759.31;;;9.98;60.93
4469;BME280;2247;42.666;23.292;2022-12-15T06:58:04;93762.44;;;10.00;60.32
4469;BME280;2247;42.666;23.292;2022-12-15T07:00:33;93746.22;;;9.93;60.13
4469;BME280;2247;42.666;23.292;2022-12-15T07:03:02;93756.13;;;10.01;61.39
4469;BME280;2247;42.666;23.292;2022-12-15T07:05:28;93771.28;;;10.09;61.69
4469;BME280;2247;42.666;23.292;2022-12-15T07:07:56;93778.75;;;10.02;60.74
4469;BME280;2247;42.666;23.292;2022-12-15T07:10:23;93781.38;;;10.02;61.61
4469;BME280;2247;42.666;23.292;2022-12-15T07:12:50;93786.84;;;10.05;60.70
4469;BME280;2247;42.666;23.292;2022-12-15T07:15:17;93795.09;;;9.99;61.35
4469;BME280;2247;42.666;23.292;2022-12-15T07:17:45;93795.06;;;9.80;61.55
4469;BME280;2247;42.666;23.292;2022-12-15T07:20:12;93801.66;;;9.77;61.75
4469;BME280;2247;42.666;23.292;2022-12-15T07:22:39;93783.75;;;9.79;61.31
4469;BME280;2247;42.666;23.292;2022-12-15T07:25:07;93808.03;;;9.71;61.26
4469;BME280;2247;42.666;23.292;2022-12-15T07:27:34;93801.34;;;9.55;62.50
4469;BME280;2247;42.666;23.292;2022-12-15T07:30:02;93806.34;;;9.57;62.68
4469;BME280;2247;42.666;23.292;2022-12-15T07:32:28;93810.13;;;9.74;62.31
4469;BME280;2247;42.666;23.292;2022-12-15T07:34:57;93817.31;;;9.64;62.88
4469;BME280;2247;42.666;23.292;2022-12-15T07:37:25;93824.56;;;9.48;63.05
4469;BME280;2247;42.666;23.292;2022-12-15T07:39:52;93818.81;;;9.46;63.45
4469;BME280;2247;42.666;23.292;2022-12-15T07:42:18;93821.91;;;9.53;63.04
4469;BME280;2247;42.666;23.292;2022-12-15T07:44:45;93820.00;;;9.59;63.40
4469;BME280;2247;42.666;23.292;2022-12-15T07:47:12;93823.09;;;9.66;63.39
4469;BME280;2247;42.666;23.292;2022-12-15T07:49:40;93827.63;;;9.84;63.00
4469;BME280;2247;42.666;23.292;2022-12-15T07:52:08;93834.56;;;9.99;62.75
4469;BME280;2247;42.666;23.292;2022-12-15T07:54:35;93822.81;;;10.15;62.11
4469;BME280;2247;42.666;23.292;2022-12-15T07:57:02;93844.44;;;10.36;60.22
4469;BME280;2247;42.666;23.292;2022-12-15T07:59:32;93850.00;;;10.34;60.66
4469;BME280;2247;42.666;23.292;2022-12-15T08:01:59;93853.06;;;10.41;60.95
4469;BME280;2247;42.666;23.292;2022-12-15T08:04:28;93850.41;;;10.22;61.04
4469;BME280;2247;42.666;23.292;2022-12-15T08:06:55;93862.31;;;10.15;61.07
4469;BME280;2247;42.666;23.292;2022-12-15T08:09:24;93862.31;;;10.15;61.63
4469;BME280;2247;42.666;23.292;2022-12-15T08:11:51;93853.97;;;10.08;60.99
4469;BME280;2247;42.666;23.292;2022-12-15T08:14:18;93866.47;;;10.21;60.62
4469;BME280;2247;42.666;23.292;2022-12-15T08:16:45;93857.97;;;10.29;60.89
4469;BME280;2247;42.666;23.292;2022-12-15T08:19:13;93870.88;;;10.49;59.85
4469;BME280;2247;42.666;23.292;2022-12-15T08:21:42;93865.63;;;10.49;60.04
4469;BME280;2247;42.666;23.292;2022-12-15T08:24:10;93862.78;;;10.64;59.74
4469;BME280;2247;42.666;23.292;2022-12-15T08:26:40;93868.06;;;10.64;59.56
4469;BME280;2247;42.666;23.292;2022-12-15T08:29:10;93878.63;;;10.59;59.61
4469;BME280;2247;42.666;23.292;2022-12-15T08:31:37;93886.97;;;10.66;60.38
4469;BME280;2247;42.666;23.292;2022-12-15T08:34:05;93878.44;;;10.75;59.78
4469;BME280;2247;42.666;23.292;2022-12-15T08:36:32;93883.44;;;10.95;59.59
4469;BME280;2247;42.666;23.292;2022-12-15T08:39:00;93895.56;;;10.96;59.38
4469;BME280;2247;42.666;23.292;2022-12-15T08:41:28;93888.63;;;11.00;59.37
4469;BME280;2247;42.666;23.292;2022-12-15T08:43:58;93891.56;;;10.80;60.39
4469;BME280;2247;42.666;23.292;2022-12-15T08:46:27;93893.00;;;10.91;60.67
4469;BME280;2247;42.666;23.292;2022-12-15T08:48:55;93893.06;;;11.04;60.40
4469;BME280;2247;42.666;23.292;2022-12-15T08:51:24;93894.72;;;11.19;60.13
4469;BME280;2247;42.666;23.292;2022-12-15T08:53:52;93906.38;;;11.32;59.82
4469;BME280;2247;42.666;23.292;2022-12-15T08:56:20;93905.91;;;10.92;60.04
4469;BME280;2247;42.666;23.292;2022-12-15T08:58:52;93897.13;;;10.97;60.40
4469;BME280;2247;42.666;23.292;2022-12-15T09:01:22;93891.63;;;10.93;60.79
4469;BME280;2247;42.666;23.292;2022-12-15T09:03:50;93889.88;;;10.65;61.26
4469;BME280;2247;42.666;23.292;2022-12-15T09:06:20;93884.84;;;10.50;61.21
4469;BME280;2247;42.666;23.292;2022-12-15T09:08:47;93897.59;;;10.61;61.65
4469;BME280;2247;42.666;23.292;2022-12-15T09:11:14;93874.53;;;10.72;61.92
4469;BME280;2247;42.666;23.292;2022-12-15T09:13:41;93883.00;;;10.69;61.78
4469;BME280;2247;42.666;23.292;2022-12-15T09:16:11;93885.38;;;10.71;61.28
4469;BME280;2247;42.666;23.292;2022-12-15T09:18:43;93891.81;;;10.59;62.08
4469;BME280;2247;42.666;23.292;2022-12-15T09:21:12;93887.91;;;10.57;62.21
4469;BME280;2247;42.666;23.292;2022-12-15T09:23:39;93890.03;;;10.55;62.52
4469;BME280;2247;42.666;23.292;2022-12-15T09:26:08;93884.84;;;10.69;62.94
4469;BME280;2247;42.666;23.292;2022-12-15T09:28:35;93886.88;;;10.77;62.93
4469;BME280;2247;42.666;23.292;2022-12-15T09:31:04;93893.34;;;10.84;63.02
4469;BME280;2247;42.666;23.292;2022-12-15T09:33:31;93897.56;;;11.04;62.31
4469;BME280;2247;42.666;23.292;2022-12-15T09:36:00;93893.75;;;11.29;61.78
4469;BME280;2247;42.666;23.292;2022-12-15T09:38:28;93906.53;;;11.40;61.52
4469;BME280;2247;42.666;23.292;2022-12-15T09:40:55;93904.16;;;11.71;60.64
4469;BME280;2247;42.666;23.292;2022-12-15T09:43:23;93890.25;;;11.84;60.13
4469;BME280;2247;42.666;23.292;2022-12-15T09:46:10;93891.16;;;11.61;60.78
4469;BME280;2247;42.666;23.292;2022-12-15T09:48:44;93893.88;;;11.75;60.94
4469;BME280;2247;42.666;23.292;2022-12-15T09:51:16;93897.50;;;11.60;61.87
4469;BME280;2247;42.666;23.292;2022-12-15T09:53:44;93891.22;;;11.75;60.86
4469;BME280;2247;42.666;23.292;2022-12-15T09:56:16;93901.19;;;11.78;61.25
4469;BME280;2247;42.666;23.292;2022-12-15T09:58:51;93899.78;;;11.67;61.24
4469;BME280;2247;42.666;23.292;2022-12-15T10:01:28;93901.44;;;11.95;61.39
4469;BME280;2247;42.666;23.292;2022-12-15T10:04:04;93887.09;;;11.82;61.49
4469;BME280;2247;42.666;23.292;2022-12-15T10:06:38;93883.81;;;11.58;62.02
4469;BME280;2247;42.666;23.292;2022-12-15T10:09:13;93881.44;;;11.75;61.32
4469;BME280;2247;42.666;23.292;2022-12-15T10:11:46;93887.72;;;11.79;61.52
4469;BME280;2247;42.666;23.292;2022-12-15T10:14:20;93889.19;;;11.86;61.48
4469;BME280;2247;42.666;23.292;2022-12-15T10:16:58;93884.53;;;11.96;60.54
4469;BME280;2247;42.666;23.292;2022-12-15T10:19:35;93889.59;;;11.93;61.25
4469;BME280;2247;42.666;23.292;2022-12-15T10:22:04;93882.22;;;11.76;61.96
4469;BME280;2247;42.666;23.292;2022-12-15T10:24:31;93902.38;;;11.53;61.39
4469;BME280;2247;42.666;23.292;2022-12-15T10:27:07;93900.78;;;11.20;62.66
4469;BME280;2247;42.666;23.292;2022-12-15T10:29:43;93897.97;;;11.11;63.34
4469;BME280;2247;42.666;23.292;2022-12-15T10:32:16;93912.03;;;11.25;63.17
4469;BME280;2247;42.666;23.292;2022-12-15T10:34:44;93911.22;;;11.25;63.06
4469;BME280;2247;42.666;23.292;2022-12-15T10:37:16;93919.41;;;11.42;62.39
4469;BME280;2247;42.666;23.292;2022-12-15T10:39:46;93915.56;;;11.34;62.88
4469;BME280;2247;42.666;23.292;2022-12-15T10:42:16;93912.56;;;11.22;62.90
4469;BME280;2247;42.666;23.292;2022-12-15T10:44:48;93909.94;;;11.22;63.18
4469;BME280;2247;42.666;23.292;2022-12-15T10:47:20;93916.53;;;11.06;64.00
4469;BME280;2247;42.666;23.292;2022-12-15T10:49:47;93902.66;;;11.14;63.95
4469;BME280;2247;42.666;23.292;2022-12-15T10:52:20;93911.09;;;11.16;63.32
4469;BME280;2247;42.666;23.292;2022-12-15T10:54:52;93908.69;;;11.20;63.64
4469;BME280;2247;42.666;23.292;2022-12-15T10:57:22;93913.66;;;11.21;63.93
4469;BME280;2247;42.666;23.292;2022-12-15T10:59:52;93919.41;;;11.42;63.67
4469;BME280;2247;42.666;23.292;2022-12-15T11:02:37;93912.50;;;11.46;63.46
4469;BME280;2247;42.666;23.292;2022-12-15T11:05:15;93917.13;;;11.35;63.67
4469;BME280;2247;42.666;23.292;2022-12-15T11:07:47;93909.25;;;10.98;64.87
4469;BME280;2247;42.666;23.292;2022-12-15T11:10:18;93921.50;;;11.26;64.75
4469;BME280;2247;42.666;23.292;2022-12-15T11:12:55;93915.16;;;11.09;64.83
4469;BME280;2247;42.666;23.292;2022-12-15T11:15:43;93903.75;;;11.32;64.79
4469;BME280;2247;42.666;23.292;2022-12-15T11:18:19;93916.72;;;11.47;63.99
4469;BME280;2247;42.666;23.292;2022-12-15T11:20:52;93909.91;;;11.60;63.97
4469;BME280;2247;42.666;23.292;2022-12-15T11:23:31;93902.78;;;11.93;62.66
4469;BME280;2247;42.666;23.292;2022-12-15T11:26:01;93906.53;;;12.05;62.10
4469;BME280;2247;42.666;23.292;2022-12-15T11:28:38;93909.47;;;12.17;61.73
4469;BME280;2247;42.666;23.292;2022-12-15T11:31:13;93912.78;;;11.96;62.68
4469;BME280;2247;42.666;23.292;2022-12-15T11:33:43;93908.75;;;11.98;63.43
4469;BME280;2247;42.666;23.292;2022-12-15T11:36:24;93911.00;;;12.05;62.94
4469;BME280;2247;42.666;23.292;2022-12-15T11:39:02;93912.00;;;11.95;62.82
4469;BME280;2247;42.666;23.292;2022-12-15T11:41:38;93922.56;;;11.95;62.71
4469;BME280;2247;42.666;23.292;2022-12-15T11:44:17;93918.06;;;11.96;62.94
4469;BME280;2247;42.666;23.292;2022-12-15T11:46:54;93928.66;;;12.09;62.62
4469;BME280;2247;42.666;23.292;2022-12-15T11:52:30;93923.34;;;11.96;62.83
4469;BME280;2247;42.666;23.292;2022-12-15T11:55:11;93915.91;;;11.98;62.87
4469;BME280;2247;42.666;23.292;2022-12-15T11:58:14;93923.97;;;12.20;63.18
4469;BME280;2247;42.666;23.292;2022-12-15T12:00:50;93930.03;;;12.20;62.38
4469;BME280;2247;42.666;23.292;2022-12-15T12:03:25;93934.41;;;12.11;62.82
4469;BME280;2247;42.666;23.292;2022-12-15T12:06:08;93935.16;;;11.98;63.36
4469;BME280;2247;42.666;23.292;2022-12-15T12:08:59;93934.59;;;12.01;63.03
4469;BME280;2247;42.666;23.292;2022-12-15T12:11:33;93934.09;;;11.99;62.94
4469;BME280;2247;42.666;23.292;2022-12-15T12:14:13;93938.31;;;12.14;63.44
4469;BME280;2247;42.666;23.292;2022-12-15T12:16:50;93941.41;;;12.35;63.39
4469;BME280;2247;42.666;23.292;2022-12-15T12:19:25;93928.66;;;12.23;62.82
4469;BME280;2247;42.666;23.292;2022-12-15T12:21:56;93938.47;;;12.50;62.23
4469;BME280;2247;42.666;23.292;2022-12-15T12:24:29;93941.56;;;12.38;62.14
4469;BME280;2247;42.666;23.292;2022-12-15T12:27:03;93943.53;;;12.33;62.87
4469;BME280;2247;42.666;23.292;2022-12-15T12:29:33;93947.06;;;12.42;61.97
4469;BME280;2247;42.666;23.292;2022-12-15T12:32:04;93954.13;;;12.46;62.41
4469;BME280;2247;42.666;23.292;2022-12-15T12:34:53;93960.59;;;12.54;62.02
4469;BME280;2247;42.666;23.292;2022-12-15T12:37:25;93953.06;;;12.61;62.33
4469;BME280;2247;42.666;23.292;2022-12-15T12:39:57;93961.47;;;12.63;61.83
4469;BME280;2247;42.666;23.292;2022-12-15T12:42:32;93974.19;;;12.75;61.61
4469;BME280;2247;42.666;23.292;2022-12-15T12:45:04;93974.69;;;12.90;60.96
4469;BME280;2247;42.666;23.292;2022-12-15T12:47:34;93975.47;;;12.91;61.15
4469;BME280;2247;42.666;23.292;2022-12-15T12:50:04;93969.69;;;12.75;61.34
4469;BME280;2247;42.666;23.292;2022-12-15T12:52:34;93965.69;;;12.78;61.02
4469;BME280;2247;42.666;23.292;2022-12-15T12:55:04;93963.13;;;12.59;61.47
4469;BME280;2247;42.666;23.292;2022-12-15T12:57:49;93977.91;;;12.46;61.86
4469;BME280;2247;42.666;23.292;2022-12-15T13:00:21;93972.13;;;12.31;63.14
4469;BME280;2247;42.666;23.292;2022-12-15T13:03:16;93977.00;;;12.23;63.25
4469;BME280;2247;42.666;23.292;2022-12-15T13:05:46;93982.31;;;12.37;63.06
4469;BME280;2247;42.666;23.292;2022-12-15T13:14:34;93989.97;;;12.06;63.72
4469;BME280;2247;42.666;23.292;2022-12-15T13:17:05;93985.88;;;12.14;64.01
4469;BME280;2247;42.666;23.292;2022-12-15T13:25:40;93980.81;;;12.31;63.16
4469;BME280;2247;42.666;23.292;2022-12-15T13:28:27;93997.00;;;12.43;62.38
4469;BME280;2247;42.666;23.292;2022-12-15T13:31:38;93992.78;;;12.42;62.03
4469;BME280;2247;42.666;23.292;2022-12-15T13:34:17;93994.72;;;12.37;62.08
4469;BME280;2247;42.666;23.292;2022-12-15T13:36:52;94005.72;;;12.11;62.78
4469;BME280;2247;42.666;23.292;2022-12-15T13:39:34;93996.16;;;12.15;63.19
4469;BME280;2247;42.666;23.292;2022-12-15T13:42:29;94004.78;;;12.21;62.51
4469;BME280;2247;42.666;23.292;2022-12-15T13:47:52;94021.09;;;12.09;63.85
4469;BME280;2247;42.666;23.292;2022-12-15T13:50:30;94018.41;;;11.96;63.74
4469;BME280;2247;42.666;23.292;2022-12-15T13:53:00;94015.66;;;12.01;63.27
4469;BME280;2247;42.666;23.292;2022-12-15T13:55:36;94011.59;;;12.08;63.71
4469;BME280;2247;42.666;23.292;2022-12-15T13:58:12;94026.41;;;12.23;63.56
4469;BME280;2247;42.666;23.292;2022-12-15T14:00:47;94026.47;;;12.18;62.89
4469;BME280;2247;42.666;23.292;2022-12-15T14:03:17;94026.50;;;12.32;63.21
4469;BME280;2247;42.666;23.292;2022-12-15T14:05:48;94039.84;;;12.40;63.15
4469;BME280;2247;42.666;23.292;2022-12-15T14:08:16;94034.56;;;12.40;62.75
4469;BME280;2247;42.666;23.292;2022-12-15T14:10:44;94034.97;;;12.47;62.59
4469;BME280;2247;42.666;23.292;2022-12-15T14:13:18;94038.78;;;12.41;62.75